Myeerah — WDB9283 — position and weather

sailwx.info

Track history (hours):
 
Tides and Currents Weather Stations Pressure Air Temp Water Temp Dewpoint Dewpoint Depression Visibility Wind Speed Wind Dir Waves Ship Positions

Myeerah

Owner: MYEERAH LLC, BOSTON, MA. More information available from US FCC via Universal Licensing System and Coast Guard Vessel Documentation Center.

Last reported at 2018-Jun-24 00:11 UTC. Time now 2018-Jun-24 01:40 UTC.
Position N 36°51' W 076°17'.

Length 27 m.

Type: Pleasure craft. MMSI: 366973040.

Date/timePositionNaut miles runAvg speedWind from/ knotsBaromVisibWave heightAir tempDewpointWater temp
2018-Jun-24 00:11N 36°51' W 076°17'0 0.0
2018-Jun-23 23:41N 36°51' W 076°17'0 0.0
2018-Jun-23 23:23N 36°51' W 076°17'0 0.0
2018-Jun-23 22:59N 36°51' W 076°17'0 0.0
2018-Jun-23 21:11N 36°51' W 076°17'0 0.0
2018-Jun-23 17:21N 36°51' W 076°17'1 0.2
2018-Jun-23 12:48N 36°50' W 076°18'134 7.3
2018-Jun-22 18:27N 34°36' W 076°38'511.3
2018-Jun-22 18:00N 34°41' W 076°40'2 3.6
2018-Jun-22 17:30N 34°43' W 076°40'0 0.0
2018-Jun-22 17:00N 34°43' W 076°40'0 0.0
2018-Jun-22 16:30N 34°43' W 076°40'0 0.0
2018-Jun-22 16:00N 34°43' W 076°40'0 0.0
2018-Jun-22 15:30N 34°43' W 076°40'0 0.0
2018-Jun-22 15:00N 34°43' W 076°40'1 2.3
2018-Jun-22 14:30N 34°42' W 076°40'611.2
2018-Jun-22 14:00N 34°37' W 076°43'53311.9
2018-Jun-20 17:03N 26°12' W 080°00'114.8
2018-Jun-20 17:00N 26°11' W 080°00'713.5
2018-Jun-20 16:30N 26°06' W 080°05'3 6.3
2018-Jun-20 16:00N 26°04' W 080°08'0 0.7
2018-Jun-20 15:26N 26°04' W 080°08'0 0.0
2018-Jun-20 14:56N 26°04' W 080°08'0 0.0
2018-Jun-20 14:29N 26°04' W 080°08'0 0.0
2018-Jun-20 13:59N 26°04' W 080°08'0 0.0
2018-Jun-20 13:29N 26°04' W 080°08'0 0.0
2018-Jun-20 12:59N 26°04' W 080°08'0 0.0
2018-Jun-20 12:29N 26°04' W 080°08'0 0.0
2018-Jun-20 06:53N 26°04' W 080°08'0 0.0
2018-Jun-20 06:26N 26°04' W 080°08'0 0.0
2018-Jun-20 05:50N 26°04' W 080°08'0 0.0
2018-Jun-20 05:26N 26°04' W 080°08'0 0.0
2018-Jun-20 03:41N 26°04' W 080°08'0 0.1
2018-Jun-20 03:23N 26°04' W 080°08'0 0.0
2018-Jun-20 01:26N 26°04' W 080°08'0 0.0
2018-Jun-20 00:44N 26°04' W 080°08'0 0.0
2018-Jun-20 00:26N 26°04' W 080°08'0 0.0
2018-Jun-19 23:59N 26°04' W 080°08'0 0.0
2018-Jun-19 23:29N 26°04' W 080°08'0 0.0
2018-Jun-19 22:59N 26°04' W 080°08'0 0.0
2018-Jun-19 21:02N 26°04' W 080°08'0 0.0
2018-Jun-19 19:32N 26°04' W 080°08'0 0.0
2018-Jun-19 19:20N 26°04' W 080°08'0 0.0
2018-Jun-19 18:53N 26°04' W 080°08'0 0.0
2018-Jun-19 18:23N 26°04' W 080°08'0 0.0
2018-Jun-19 17:50N 26°04' W 080°08'0 0.0
2018-Jun-19 17:23N 26°04' W 080°08'0 0.0
2018-Jun-19 16:53N 26°04' W 080°08'0 0.0
2018-Jun-19 16:26N 26°04' W 080°08'0 0.0
2018-Jun-19 15:56N 26°04' W 080°08'0 0.0
2018-Jun-19 15:26N 26°04' W 080°08'0 0.0
2018-Jun-19 14:56N 26°04' W 080°08'0 0.0
2018-Jun-19 14:26N 26°04' W 080°08'0 0.0
2018-Jun-19 13:56N 26°04' W 080°08'0 0.0
2018-Jun-19 12:59N 26°04' W 080°08'0 0.0
2018-Jun-19 10:56N 26°04' W 080°08'0 0.0
2018-Jun-19 10:14N 26°04' W 080°08'0 0.0
2018-Jun-19 09:47N 26°04' W 080°08'0 0.0
2018-Jun-19 09:29N 26°04' W 080°08'0 0.0
2018-Jun-19 08:59N 26°04' W 080°08'0 0.0
2018-Jun-19 08:29N 26°04' W 080°08'0 0.0
2018-Jun-19 07:59N 26°04' W 080°08'0 0.0
2018-Jun-19 07:29N 26°04' W 080°08'0 0.0
2018-Jun-19 06:59N 26°04' W 080°08'0 0.0
2018-Jun-19 06:20N 26°04' W 080°08'0 0.0
2018-Jun-19 05:50N 26°04' W 080°08'0 0.0
2018-Jun-19 05:23N 26°04' W 080°08'0 0.0
2018-Jun-19 04:53N 26°04' W 080°08'0 0.0
2018-Jun-19 04:23N 26°04' W 080°08'0 0.0
2018-Jun-19 03:53N 26°04' W 080°08'0 0.0
2018-Jun-19 03:23N 26°04' W 080°08'0 0.0
2018-Jun-19 02:53N 26°04' W 080°08'0 0.0
2018-Jun-19 02:20N 26°04' W 080°08'0 0.0
2018-Jun-19 01:56N 26°04' W 080°08'0 0.0
2018-Jun-19 01:26N 26°04' W 080°08'0 0.0
2018-Jun-19 00:56N 26°04' W 080°08'0 0.0
2018-Jun-19 00:23N 26°04' W 080°08'0 0.0
2018-Jun-18 23:56N 26°04' W 080°08'0 0.0
2018-Jun-18 23:29N 26°04' W 080°08'0 0.0
2018-Jun-18 22:56N 26°04' W 080°08'0 0.0
2018-Jun-18 22:26N 26°04' W 080°08'0 0.0
2018-Jun-18 21:56N 26°04' W 080°08'0 0.0
2018-Jun-18 21:29N 26°04' W 080°08'0 0.0
2018-Jun-18 20:59N 26°04' W 080°08'0 0.0
2018-Jun-18 20:29N 26°04' W 080°08'0 0.1
2018-Jun-18 19:59N 26°04' W 080°08'0 0.1
2018-Jun-18 19:29N 26°04' W 080°08'0 0.0
2018-Jun-18 18:59N 26°04' W 080°08'0 0.0
2018-Jun-18 18:29N 26°04' W 080°08'0 0.0
2018-Jun-18 17:59N 26°04' W 080°08'0 0.0
2018-Jun-18 17:29N 26°04' W 080°08'0 0.0
2018-Jun-18 16:47N 26°04' W 080°08'0 0.0
2018-Jun-18 16:20N 26°04' W 080°08'0 0.0
2018-Jun-18 15:50N 26°04' W 080°08'0 0.0
2018-Jun-18 15:17N 26°04' W 080°08'0 0.0
2018-Jun-18 14:53N 26°04' W 080°08'0 0.0
2018-Jun-18 14:23N 26°04' W 080°08'0 0.0
2018-Jun-18 13:53N 26°04' W 080°08'0 0.0
2018-Jun-18 13:23N 26°04' W 080°08'0 0.0
2018-Jun-18 12:53N 26°04' W 080°08'0 0.0
2018-Jun-18 12:26N 26°04' W 080°08'0 0.0
2018-Jun-18 11:56N 26°04' W 080°08'0 0.0
2018-Jun-18 11:23N 26°04' W 080°08'0 0.0
2018-Jun-18 10:56N 26°04' W 080°08'0 0.0
2018-Jun-18 10:26N 26°04' W 080°08'0 0.0
2018-Jun-18 09:56N 26°04' W 080°08'0 0.0
2018-Jun-18 09:29N 26°04' W 080°08'0 0.0
2018-Jun-18 08:59N 26°04' W 080°08'0 0.0
2018-Jun-18 08:26N 26°04' W 080°08'0 0.0
2018-Jun-18 07:11N 26°04' W 080°08'0 0.0
2018-Jun-18 01:50N 26°04' W 080°08'0 0.0
2018-Jun-18 01:08N 26°04' W 080°08'0 0.0
2018-Jun-18 00:50N 26°04' W 080°08'0 0.0
2018-Jun-18 00:23N 26°04' W 080°08'0 0.0
2018-Jun-17 23:53N 26°04' W 080°08'0 0.0
2018-Jun-17 23:26N 26°04' W 080°08'0 0.0
2018-Jun-17 22:56N 26°04' W 080°08'0 0.0
2018-Jun-17 22:26N 26°04' W 080°08'0 0.0
2018-Jun-17 21:56N 26°04' W 080°08'0 0.0
2018-Jun-17 21:23N 26°04' W 080°08'0 0.0
2018-Jun-17 20:53N 26°04' W 080°08'0 0.0
2018-Jun-17 20:26N 26°04' W 080°08'0 0.0
2018-Jun-17 19:56N 26°04' W 080°08'0 0.0
2018-Jun-17 19:29N 26°04' W 080°08'0 0.0
2018-Jun-17 17:59N 26°04' W 080°08'0 0.0
2018-Jun-17 14:29N 26°04' W 080°08'0 0.0
2018-Jun-17 13:59N 26°04' W 080°08'0 0.0
2018-Jun-17 13:17N 26°04' W 080°08'0 0.0
2018-Jun-17 12:05N 26°04' W 080°08'0 0.0
2018-Jun-17 11:47N 26°04' W 080°08'0 0.0
2018-Jun-17 11:23N 26°04' W 080°08'0 0.0
2018-Jun-17 10:53N 26°04' W 080°08'0 0.0
2018-Jun-17 10:23N 26°04' W 080°08'0 0.0
2018-Jun-17 09:50N 26°04' W 080°08'0 0.0
2018-Jun-17 09:23N 26°04' W 080°08'0 0.0
2018-Jun-17 08:53N 26°04' W 080°08'0 0.0
2018-Jun-17 08:23N 26°04' W 080°08'0 0.0
2018-Jun-17 07:56N 26°04' W 080°08'0 0.0
2018-Jun-17 06:56N 26°04' W 080°08'0 0.0
2018-Jun-17 06:23N 26°04' W 080°08'0 0.0
2018-Jun-17 05:59N 26°04' W 080°08'0 0.0
2018-Jun-17 05:26N 26°04' W 080°08'0 0.0
2018-Jun-17 04:56N 26°04' W 080°08'0 0.0
2018-Jun-17 03:02N 26°04' W 080°08'0 0.0
2018-Jun-17 02:44N 26°04' W 080°08'0 0.0
2018-Jun-17 00:47N 26°04' W 080°08'0 0.0
2018-Jun-16 23:47N 26°04' W 080°08'0 0.0
2018-Jun-16 23:29N 26°04' W 080°08'0 0.0
2018-Jun-16 22:50N 26°04' W 080°08'0 0.0
2018-Jun-16 22:20N 26°04' W 080°08'0 0.0
2018-Jun-16 21:50N 26°04' W 080°08'0 0.0
2018-Jun-16 21:28N 26°04' W 080°08'0 0.0
2018-Jun-16 20:58N 26°04' W 080°08'0 0.0
2018-Jun-16 20:28N 26°04' W 080°08'0 0.0
2018-Jun-16 20:00N 26°04' W 080°08'0 0.0
2018-Jun-16 19:30N 26°04' W 080°08'0 0.0
2018-Jun-16 19:00N 26°04' W 080°08'0 0.0
2018-Jun-16 18:24N 26°04' W 080°08'0 0.0
2018-Jun-16 17:30N 26°04' W 080°08'0 0.0
2018-Jun-16 16:57N 26°04' W 080°08'0 0.0
2018-Jun-16 16:27N 26°04' W 080°08'0 0.0
2018-Jun-16 13:30N 26°04' W 080°08'0 0.0
2018-Jun-16 13:00N 26°04' W 080°08'0 0.0
2018-Jun-16 12:18N 26°04' W 080°08'0 0.0
2018-Jun-16 11:48N 26°04' W 080°08'0 0.0
2018-Jun-16 11:18N 26°04' W 080°08'0 0.0
2018-Jun-16 10:54N 26°04' W 080°08'0 0.0
2018-Jun-16 09:24N 26°04' W 080°08'0 0.0
2018-Jun-16 08:54N 26°04' W 080°08'0 0.0
2018-Jun-16 08:24N 26°04' W 080°08'0 0.0
2018-Jun-16 07:57N 26°04' W 080°08'0 0.0
2018-Jun-16 06:57N 26°04' W 080°08'0 0.0
2018-Jun-16 06:12N 26°04' W 080°08'0 0.0
2018-Jun-16 05:54N 26°04' W 080°08'0 0.0
2018-Jun-16 00:00N 26°04' W 080°08'0 0.0
2018-Jun-15 23:30N 26°04' W 080°08'0 0.0
2018-Jun-15 23:00N 26°04' W 080°08'0 0.0
2018-Jun-15 22:30N 26°04' W 080°08'0 0.0
2018-Jun-15 21:51N 26°04' W 080°08'0 0.0
2018-Jun-15 21:21N 26°04' W 080°08'0 0.0
2018-Jun-15 20:51N 26°04' W 080°08'0 0.1
2018-Jun-15 20:24N 26°04' W 080°08'0 0.0
2018-Jun-15 19:54N 26°04' W 080°08'0 0.0
2018-Jun-15 19:24N 26°04' W 080°08'0 0.0
2018-Jun-15 18:57N 26°04' W 080°08'0 0.0
2018-Jun-15 18:24N 26°04' W 080°08'0 0.0
2018-Jun-15 17:06N 26°04' W 080°08'0 0.0
2018-Jun-15 17:00N 26°04' W 080°08'0 0.0
2018-Jun-15 14:06N 26°04' W 080°08'0 0.0
2018-Jun-15 13:54N 26°04' W 080°08'0 0.0
2018-Jun-15 13:24N 26°04' W 080°08'0 0.0
2018-Jun-15 12:54N 26°04' W 080°08'0 0.0
2018-Jun-15 12:27N 26°04' W 080°08'0 0.0
2018-Jun-15 11:57N 26°04' W 080°08'0 0.0
2018-Jun-15 10:27N 26°04' W 080°08'0 0.0
2018-Jun-15 09:57N 26°04' W 080°08'0 0.0
2018-Jun-15 09:30N 26°04' W 080°08'0 0.0
2018-Jun-15 09:00N 26°04' W 080°08'0 0.0
2018-Jun-15 08:27N 26°04' W 080°08'0 0.0
2018-Jun-15 08:00N 26°04' W 080°08'0 0.0
2018-Jun-15 07:30N 26°04' W 080°08'0 0.0
2018-Jun-15 07:00N 26°04' W 080°08'0 0.0
2018-Jun-15 06:15N 26°04' W 080°08'0 0.0
2018-Jun-15 05:45N 26°04' W 080°08'0 0.0
2018-Jun-15 04:33N 26°04' W 080°08'0 0.0
2018-Jun-15 03:15N 26°04' W 080°08'0 0.0
2018-Jun-15 02:51N 26°04' W 080°08'0 0.0
2018-Jun-15 02:06N 26°04' W 080°08'0 0.0
2018-Jun-15 01:51N 26°04' W 080°08'0 0.0
2018-Jun-15 01:24N 26°04' W 080°08'0 0.0
2018-Jun-15 00:48N 26°04' W 080°08'0 0.0
2018-Jun-14 23:39N 26°04' W 080°08'0 0.0
2018-Jun-14 23:24N 26°04' W 080°08'0 0.0
2018-Jun-14 22:57N 26°04' W 080°08'0 0.0
2018-Jun-14 22:09N 26°04' W 080°08'0 0.2
2018-Jun-14 21:57N 26°04' W 080°08'0 0.1
2018-Jun-14 21:27N 26°04' W 080°08'0 0.0
2018-Jun-14 20:57N 26°04' W 080°08'0 0.0
2018-Jun-14 19:57N 26°04' W 080°08'0 0.0
2018-Jun-14 19:30N 26°04' W 080°08'0 0.0
2018-Jun-14 19:00N 26°04' W 080°08'0 0.0
2018-Jun-14 18:27N 26°04' W 080°08'0 0.0
2018-Jun-14 17:45N 26°04' W 080°08'0 0.0
2018-Jun-14 17:30N 26°04' W 080°08'0 0.0
2018-Jun-14 17:00N 26°04' W 080°08'0 0.0
2018-Jun-14 16:30N 26°04' W 080°08'0 0.0
2018-Jun-14 15:15N 26°04' W 080°08'0 0.0
2018-Jun-14 13:45N 26°04' W 080°08'0 0.0
2018-Jun-14 13:30N 26°04' W 080°08'0 0.0
2018-Jun-14 12:51N 26°04' W 080°08'0 0.0
2018-Jun-14 12:21N 26°04' W 080°08'0 0.0
2018-Jun-14 11:48N 26°04' W 080°08'0 0.0
2018-Jun-14 11:18N 26°04' W 080°08'0 0.0
2018-Jun-14 10:54N 26°04' W 080°08'0 0.0
2018-Jun-14 10:24N 26°04' W 080°08'0 0.0
2018-Jun-14 09:54N 26°04' W 080°08'0 0.0
2018-Jun-14 09:24N 26°04' W 080°08'0 0.0
2018-Jun-14 08:57N 26°04' W 080°08'0 0.0
2018-Jun-14 08:27N 26°04' W 080°08'0 0.0
2018-Jun-14 07:54N 26°04' W 080°08'0 0.0
2018-Jun-14 07:27N 26°04' W 080°08'0 0.0
2018-Jun-14 06:57N 26°04' W 080°08'0 0.0
2018-Jun-14 06:24N 26°04' W 080°08'0 0.0
2018-Jun-14 06:00N 26°04' W 080°08'0 0.0
2018-Jun-14 05:27N 26°04' W 080°08'0 0.0
2018-Jun-14 04:45N 26°04' W 080°08'0 0.0
2018-Jun-14 04:27N 26°04' W 080°08'0 0.0
2018-Jun-14 03:57N 26°04' W 080°08'0 0.0
2018-Jun-14 02:27N 26°04' W 080°08'0 0.0
2018-Jun-14 01:45N 26°04' W 080°08'0 0.0
2018-Jun-14 01:15N 26°04' W 080°08'0 0.0
2018-Jun-14 00:45N 26°04' W 080°08'0 0.0
2018-Jun-14 00:15N 26°04' W 080°08'  
Track history (hours):
 
Tides and Currents Weather Stations Pressure Air Temp Water Temp Dewpoint Dewpoint Depression Visibility Wind Speed Wind Dir Waves Ship Positions

Myeerah

Owner: MYEERAH LLC, BOSTON, MA. More information available from US FCC via Universal Licensing System and Coast Guard Vessel Documentation Center.

Last reported at 2018-Jun-24 00:11 UTC. Time now 2018-Jun-24 01:40 UTC.
Position N 36°51' W 076°17'.

Length 27 m.

Type: Pleasure craft. MMSI: 366973040.

Date/timePositionNaut miles runAvg speedWind from/ knotsBaromVisibWave heightAir tempDewpointWater temp
2018-Jun-24 00:11N 36°51' W 076°17'0 0.0
2018-Jun-23 23:41N 36°51' W 076°17'0 0.0
2018-Jun-23 23:23N 36°51' W 076°17'0 0.0
2018-Jun-23 22:59N 36°51' W 076°17'0 0.0
2018-Jun-23 21:11N 36°51' W 076°17'0 0.0
2018-Jun-23 17:21N 36°51' W 076°17'1 0.2
2018-Jun-23 12:48N 36°50' W 076°18'134 7.3
2018-Jun-22 18:27N 34°36' W 076°38'511.3
2018-Jun-22 18:00N 34°41' W 076°40'2 3.6
2018-Jun-22 17:30N 34°43' W 076°40'0 0.0
2018-Jun-22 17:00N 34°43' W 076°40'0 0.0
2018-Jun-22 16:30N 34°43' W 076°40'0 0.0
2018-Jun-22 16:00N 34°43' W 076°40'0 0.0
2018-Jun-22 15:30N 34°43' W 076°40'0 0.0
2018-Jun-22 15:00N 34°43' W 076°40'1 2.3
2018-Jun-22 14:30N 34°42' W 076°40'611.2
2018-Jun-22 14:00N 34°37' W 076°43'53311.9
2018-Jun-20 17:03N 26°12' W 080°00'114.8
2018-Jun-20 17:00N 26°11' W 080°00'713.5
2018-Jun-20 16:30N 26°06' W 080°05'3 6.3
2018-Jun-20 16:00N 26°04' W 080°08'0 0.7
2018-Jun-20 15:26N 26°04' W 080°08'0 0.0
2018-Jun-20 14:56N 26°04' W 080°08'0 0.0
2018-Jun-20 14:29N 26°04' W 080°08'0 0.0
2018-Jun-20 13:59N 26°04' W 080°08'0 0.0
2018-Jun-20 13:29N 26°04' W 080°08'0 0.0
2018-Jun-20 12:59N 26°04' W 080°08'0 0.0
2018-Jun-20 12:29N 26°04' W 080°08'0 0.0
2018-Jun-20 06:53N 26°04' W 080°08'0 0.0
2018-Jun-20 06:26N 26°04' W 080°08'0 0.0
2018-Jun-20 05:50N 26°04' W 080°08'0 0.0
2018-Jun-20 05:26N 26°04' W 080°08'0 0.0
2018-Jun-20 03:41N 26°04' W 080°08'0 0.1
2018-Jun-20 03:23N 26°04' W 080°08'0 0.0
2018-Jun-20 01:26N 26°04' W 080°08'0 0.0
2018-Jun-20 00:44N 26°04' W 080°08'0 0.0
2018-Jun-20 00:26N 26°04' W 080°08'0 0.0
2018-Jun-19 23:59N 26°04' W 080°08'0 0.0
2018-Jun-19 23:29N 26°04' W 080°08'0 0.0
2018-Jun-19 22:59N 26°04' W 080°08'0 0.0
2018-Jun-19 21:02N 26°04' W 080°08'0 0.0
2018-Jun-19 19:32N 26°04' W 080°08'0 0.0
2018-Jun-19 19:20N 26°04' W 080°08'0 0.0
2018-Jun-19 18:53N 26°04' W 080°08'0 0.0
2018-Jun-19 18:23N 26°04' W 080°08'0 0.0
2018-Jun-19 17:50N 26°04' W 080°08'0 0.0
2018-Jun-19 17:23N 26°04' W 080°08'0 0.0
2018-Jun-19 16:53N 26°04' W 080°08'0 0.0
2018-Jun-19 16:26N 26°04' W 080°08'0 0.0
2018-Jun-19 15:56N 26°04' W 080°08'0 0.0
2018-Jun-19 15:26N 26°04' W 080°08'0 0.0
2018-Jun-19 14:56N 26°04' W 080°08'0 0.0
2018-Jun-19 14:26N 26°04' W 080°08'0 0.0
2018-Jun-19 13:56N 26°04' W 080°08'0 0.0
2018-Jun-19 12:59N 26°04' W 080°08'0 0.0
2018-Jun-19 10:56N 26°04' W 080°08'0 0.0
2018-Jun-19 10:14N 26°04' W 080°08'0 0.0
2018-Jun-19 09:47N 26°04' W 080°08'0 0.0
2018-Jun-19 09:29N 26°04' W 080°08'0 0.0
2018-Jun-19 08:59N 26°04' W 080°08'0 0.0
2018-Jun-19 08:29N 26°04' W 080°08'0 0.0
2018-Jun-19 07:59N 26°04' W 080°08'0 0.0
2018-Jun-19 07:29N 26°04' W 080°08'0 0.0
2018-Jun-19 06:59N 26°04' W 080°08'0 0.0
2018-Jun-19 06:20N 26°04' W 080°08'0 0.0
2018-Jun-19 05:50N 26°04' W 080°08'0 0.0
2018-Jun-19 05:23N 26°04' W 080°08'0 0.0
2018-Jun-19 04:53N 26°04' W 080°08'0 0.0
2018-Jun-19 04:23N 26°04' W 080°08'0 0.0
2018-Jun-19 03:53N 26°04' W 080°08'0 0.0
2018-Jun-19 03:23N 26°04' W 080°08'0 0.0
2018-Jun-19 02:53N 26°04' W 080°08'0 0.0
2018-Jun-19 02:20N 26°04' W 080°08'0 0.0
2018-Jun-19 01:56N 26°04' W 080°08'0 0.0
2018-Jun-19 01:26N 26°04' W 080°08'0 0.0
2018-Jun-19 00:56N 26°04' W 080°08'0 0.0
2018-Jun-19 00:23N 26°04' W 080°08'0 0.0
2018-Jun-18 23:56N 26°04' W 080°08'0 0.0
2018-Jun-18 23:29N 26°04' W 080°08'0 0.0
2018-Jun-18 22:56N 26°04' W 080°08'0 0.0
2018-Jun-18 22:26N 26°04' W 080°08'0 0.0
2018-Jun-18 21:56N 26°04' W 080°08'0 0.0
2018-Jun-18 21:29N 26°04' W 080°08'0 0.0
2018-Jun-18 20:59N 26°04' W 080°08'0 0.0
2018-Jun-18 20:29N 26°04' W 080°08'0 0.1
2018-Jun-18 19:59N 26°04' W 080°08'0 0.1
2018-Jun-18 19:29N 26°04' W 080°08'0 0.0
2018-Jun-18 18:59N 26°04' W 080°08'0 0.0
2018-Jun-18 18:29N 26°04' W 080°08'0 0.0
2018-Jun-18 17:59N 26°04' W 080°08'0 0.0
2018-Jun-18 17:29N 26°04' W 080°08'0 0.0
2018-Jun-18 16:47N 26°04' W 080°08'0 0.0
2018-Jun-18 16:20N 26°04' W 080°08'0 0.0
2018-Jun-18 15:50N 26°04' W 080°08'0 0.0
2018-Jun-18 15:17N 26°04' W 080°08'0 0.0
2018-Jun-18 14:53N 26°04' W 080°08'0 0.0
2018-Jun-18 14:23N 26°04' W 080°08'0 0.0
2018-Jun-18 13:53N 26°04' W 080°08'0 0.0
2018-Jun-18 13:23N 26°04' W 080°08'0 0.0
2018-Jun-18 12:53N 26°04' W 080°08'0 0.0
2018-Jun-18 12:26N 26°04' W 080°08'0 0.0
2018-Jun-18 11:56N 26°04' W 080°08'0 0.0
2018-Jun-18 11:23N 26°04' W 080°08'0 0.0
2018-Jun-18 10:56N 26°04' W 080°08'0 0.0
2018-Jun-18 10:26N 26°04' W 080°08'0 0.0
2018-Jun-18 09:56N 26°04' W 080°08'0 0.0
2018-Jun-18 09:29N 26°04' W 080°08'0 0.0
2018-Jun-18 08:59N 26°04' W 080°08'0 0.0
2018-Jun-18 08:26N 26°04' W 080°08'0 0.0
2018-Jun-18 07:11N 26°04' W 080°08'0 0.0
2018-Jun-18 01:50N 26°04' W 080°08'0 0.0
2018-Jun-18 01:08N 26°04' W 080°08'0 0.0
2018-Jun-18 00:50N 26°04' W 080°08'0 0.0
2018-Jun-18 00:23N 26°04' W 080°08'0 0.0
2018-Jun-17 23:53N 26°04' W 080°08'0 0.0
2018-Jun-17 23:26N 26°04' W 080°08'0 0.0
2018-Jun-17 22:56N 26°04' W 080°08'0 0.0
2018-Jun-17 22:26N 26°04' W 080°08'0 0.0
2018-Jun-17 21:56N 26°04' W 080°08'0 0.0
2018-Jun-17 21:23N 26°04' W 080°08'0 0.0
2018-Jun-17 20:53N 26°04' W 080°08'0 0.0
2018-Jun-17 20:26N 26°04' W 080°08'0 0.0
2018-Jun-17 19:56N 26°04' W 080°08'0 0.0
2018-Jun-17 19:29N 26°04' W 080°08'0 0.0
2018-Jun-17 17:59N 26°04' W 080°08'0 0.0
2018-Jun-17 14:29N 26°04' W 080°08'0 0.0
2018-Jun-17 13:59N 26°04' W 080°08'0 0.0
2018-Jun-17 13:17N 26°04' W 080°08'0 0.0
2018-Jun-17 12:05N 26°04' W 080°08'0 0.0
2018-Jun-17 11:47N 26°04' W 080°08'0 0.0
2018-Jun-17 11:23N 26°04' W 080°08'0 0.0
2018-Jun-17 10:53N 26°04' W 080°08'0 0.0
2018-Jun-17 10:23N 26°04' W 080°08'0 0.0
2018-Jun-17 09:50N 26°04' W 080°08'0 0.0
2018-Jun-17 09:23N 26°04' W 080°08'0 0.0
2018-Jun-17 08:53N 26°04' W 080°08'0 0.0
2018-Jun-17 08:23N 26°04' W 080°08'0 0.0
2018-Jun-17 07:56N 26°04' W 080°08'0 0.0
2018-Jun-17 06:56N 26°04' W 080°08'0 0.0
2018-Jun-17 06:23N 26°04' W 080°08'0 0.0
2018-Jun-17 05:59N 26°04' W 080°08'0 0.0
2018-Jun-17 05:26N 26°04' W 080°08'0 0.0
2018-Jun-17 04:56N 26°04' W 080°08'0 0.0
2018-Jun-17 03:02N 26°04' W 080°08'0 0.0
2018-Jun-17 02:44N 26°04' W 080°08'0 0.0
2018-Jun-17 00:47N 26°04' W 080°08'0 0.0
2018-Jun-16 23:47N 26°04' W 080°08'0 0.0
2018-Jun-16 23:29N 26°04' W 080°08'0 0.0
2018-Jun-16 22:50N 26°04' W 080°08'0 0.0
2018-Jun-16 22:20N 26°04' W 080°08'0 0.0
2018-Jun-16 21:50N 26°04' W 080°08'0 0.0
2018-Jun-16 21:28N 26°04' W 080°08'0 0.0
2018-Jun-16 20:58N 26°04' W 080°08'0 0.0
2018-Jun-16 20:28N 26°04' W 080°08'0 0.0
2018-Jun-16 20:00N 26°04' W 080°08'0 0.0
2018-Jun-16 19:30N 26°04' W 080°08'0 0.0
2018-Jun-16 19:00N 26°04' W 080°08'0 0.0
2018-Jun-16 18:24N 26°04' W 080°08'0 0.0
2018-Jun-16 17:30N 26°04' W 080°08'0 0.0
2018-Jun-16 16:57N 26°04' W 080°08'0 0.0
2018-Jun-16 16:27N 26°04' W 080°08'0 0.0
2018-Jun-16 13:30N 26°04' W 080°08'0 0.0
2018-Jun-16 13:00N 26°04' W 080°08'0 0.0
2018-Jun-16 12:18N 26°04' W 080°08'0 0.0
2018-Jun-16 11:48N 26°04' W 080°08'0 0.0
2018-Jun-16 11:18N 26°04' W 080°08'0 0.0
2018-Jun-16 10:54N 26°04' W 080°08'0 0.0
2018-Jun-16 09:24N 26°04' W 080°08'0 0.0
2018-Jun-16 08:54N 26°04' W 080°08'0 0.0
2018-Jun-16 08:24N 26°04' W 080°08'0 0.0
2018-Jun-16 07:57N 26°04' W 080°08'0 0.0
2018-Jun-16 06:57N 26°04' W 080°08'0 0.0
2018-Jun-16 06:12N 26°04' W 080°08'0 0.0
2018-Jun-16 05:54N 26°04' W 080°08'0 0.0
2018-Jun-16 00:00N 26°04' W 080°08'0 0.0
2018-Jun-15 23:30N 26°04' W 080°08'0 0.0
2018-Jun-15 23:00N 26°04' W 080°08'0 0.0
2018-Jun-15 22:30N 26°04' W 080°08'0 0.0
2018-Jun-15 21:51N 26°04' W 080°08'0 0.0
2018-Jun-15 21:21N 26°04' W 080°08'0 0.0
2018-Jun-15 20:51N 26°04' W 080°08'0 0.1
2018-Jun-15 20:24N 26°04' W 080°08'0 0.0
2018-Jun-15 19:54N 26°04' W 080°08'0 0.0
2018-Jun-15 19:24N 26°04' W 080°08'0 0.0
2018-Jun-15 18:57N 26°04' W 080°08'0 0.0
2018-Jun-15 18:24N 26°04' W 080°08'0 0.0
2018-Jun-15 17:06N 26°04' W 080°08'0 0.0
2018-Jun-15 17:00N 26°04' W 080°08'0 0.0
2018-Jun-15 14:06N 26°04' W 080°08'0 0.0
2018-Jun-15 13:54N 26°04' W 080°08'0 0.0
2018-Jun-15 13:24N 26°04' W 080°08'0 0.0
2018-Jun-15 12:54N 26°04' W 080°08'0 0.0
2018-Jun-15 12:27N 26°04' W 080°08'0 0.0
2018-Jun-15 11:57N 26°04' W 080°08'0 0.0
2018-Jun-15 10:27N 26°04' W 080°08'0 0.0
2018-Jun-15 09:57N 26°04' W 080°08'0 0.0
2018-Jun-15 09:30N 26°04' W 080°08'0 0.0
2018-Jun-15 09:00N 26°04' W 080°08'0 0.0
2018-Jun-15 08:27N 26°04' W 080°08'0 0.0
2018-Jun-15 08:00N 26°04' W 080°08'0 0.0
2018-Jun-15 07:30N 26°04' W 080°08'0 0.0
2018-Jun-15 07:00N 26°04' W 080°08'0 0.0
2018-Jun-15 06:15N 26°04' W 080°08'0 0.0
2018-Jun-15 05:45N 26°04' W 080°08'0 0.0
2018-Jun-15 04:33N 26°04' W 080°08'0 0.0
2018-Jun-15 03:15N 26°04' W 080°08'0 0.0
2018-Jun-15 02:51N 26°04' W 080°08'0 0.0
2018-Jun-15 02:06N 26°04' W 080°08'0 0.0
2018-Jun-15 01:51N 26°04' W 080°08'0 0.0
2018-Jun-15 01:24N 26°04' W 080°08'0 0.0
2018-Jun-15 00:48N 26°04' W 080°08'0 0.0
2018-Jun-14 23:39N 26°04' W 080°08'0 0.0
2018-Jun-14 23:24N 26°04' W 080°08'0 0.0
2018-Jun-14 22:57N 26°04' W 080°08'0 0.0
2018-Jun-14 22:09N 26°04' W 080°08'0 0.2
2018-Jun-14 21:57N 26°04' W 080°08'0 0.1
2018-Jun-14 21:27N 26°04' W 080°08'0 0.0
2018-Jun-14 20:57N 26°04' W 080°08'0 0.0
2018-Jun-14 19:57N 26°04' W 080°08'0 0.0
2018-Jun-14 19:30N 26°04' W 080°08'0 0.0
2018-Jun-14 19:00N 26°04' W 080°08'0 0.0
2018-Jun-14 18:27N 26°04' W 080°08'0 0.0
2018-Jun-14 17:45N 26°04' W 080°08'0 0.0
2018-Jun-14 17:30N 26°04' W 080°08'0 0.0
2018-Jun-14 17:00N 26°04' W 080°08'0 0.0
2018-Jun-14 16:30N 26°04' W 080°08'0 0.0
2018-Jun-14 15:15N 26°04' W 080°08'0 0.0
2018-Jun-14 13:45N 26°04' W 080°08'0 0.0
2018-Jun-14 13:30N 26°04' W 080°08'0 0.0
2018-Jun-14 12:51N 26°04' W 080°08'0 0.0
2018-Jun-14 12:21N 26°04' W 080°08'0 0.0
2018-Jun-14 11:48N 26°04' W 080°08'0 0.0
2018-Jun-14 11:18N 26°04' W 080°08'0 0.0
2018-Jun-14 10:54N 26°04' W 080°08'0 0.0
2018-Jun-14 10:24N 26°04' W 080°08'0 0.0
2018-Jun-14 09:54N 26°04' W 080°08'0 0.0
2018-Jun-14 09:24N 26°04' W 080°08'0 0.0
2018-Jun-14 08:57N 26°04' W 080°08'0 0.0
2018-Jun-14 08:27N 26°04' W 080°08'0 0.0
2018-Jun-14 07:54N 26°04' W 080°08'0 0.0
2018-Jun-14 07:27N 26°04' W 080°08'0 0.0
2018-Jun-14 06:57N 26°04' W 080°08'0 0.0
2018-Jun-14 06:24N 26°04' W 080°08'0 0.0
2018-Jun-14 06:00N 26°04' W 080°08'0 0.0
2018-Jun-14 05:27N 26°04' W 080°08'0 0.0
2018-Jun-14 04:45N 26°04' W 080°08'0 0.0
2018-Jun-14 04:27N 26°04' W 080°08'0 0.0
2018-Jun-14 03:57N 26°04' W 080°08'0 0.0
2018-Jun-14 02:27N 26°04' W 080°08'0 0.0
2018-Jun-14 01:45N 26°04' W 080°08'0 0.0
2018-Jun-14 01:15N 26°04' W 080°08'0 0.0
2018-Jun-14 00:45N 26°04' W 080°08'0 0.0
2018-Jun-14 00:15N 26°04' W 080°08'  

Dump ship's entire track history